Time;durP1;ratioP1;P1;durP2;ratioP2;P2;SDS_P1;SDS_P2;PMS_P1;PMS_P2;Temp;Humidity;BMP_temperature;BMP_pressure;BME280_temperature;BME280_humidity;BME280_pressure;Samples;Min_cycle;Max_cycle;Signal;HPM_P1;HPM_P2
2021/07/11 00:00:14;;;;;;;;;;;17.20;99.90;;;;;;6255973;23;19903;-83
2021/07/11 00:02:40;;;;;;;;;;;17.10;99.90;;;;;;6225348;23;20369;-83
2021/07/11 00:05:06;;;;;;;;;;;17.20;99.90;;;;;;6253279;23;19904;-83
2021/07/11 00:07:32;;;;;;;;;;;17.20;99.90;;;;;;6251961;23;19912;-83
2021/07/11 00:09:58;;;;;;;;;;;17.20;99.90;;;;;;6255678;23;20249;-83
2021/07/11 00:12:24;;;;;;;;;;;17.20;99.90;;;;;;6255915;23;20254;-84
2021/07/11 00:14:49;;;;;;;;;;;17.20;99.90;;;;;;6255992;23;19938;-83
2021/07/11 00:17:15;;;;;;;;;;;17.20;99.90;;;;;;6255873;23;19912;-83
2021/07/11 00:19:40;;;;;;;;;;;17.20;99.90;;;;;;6248497;22;20490;-76
2021/07/11 00:22:06;;;;;;;;;;;17.20;99.90;;;;;;6245597;23;19915;-77
2021/07/11 00:24:32;;;;;;;;;;;17.20;99.90;;;;;;6245821;23;19904;-77
2021/07/11 00:26:57;;;;;;;;;;;17.10;99.90;;;;;;6220206;23;19903;-77
2021/07/11 00:29:23;;;;;;;;;;;17.10;99.90;;;;;;6246151;23;19911;-77
2021/07/11 00:31:48;;;;;;;;;;;17.20;99.90;;;;;;6246819;23;20246;-77
2021/07/11 00:34:14;;;;;;;;;;;17.10;99.90;;;;;;6245918;23;19927;-76
2021/07/11 00:36:39;;;;;;;;;;;17.10;99.90;;;;;;6220056;23;19904;-77
2021/07/11 00:39:05;;;;;;;;;;;17.10;99.90;;;;;;6219360;23;19957;-77
2021/07/11 00:41:30;;;;;;;;;;;17.10;99.90;;;;;;6245921;23;19982;-77
2021/07/11 00:43:56;;;;;;;;;;;17.10;99.90;;;;;;6245190;23;19907;-77
2021/07/11 00:46:21;;;;;;;;;;;17.10;99.90;;;;;;6245960;23;20027;-77
2021/07/11 00:48:47;;;;;;;;;;;17.10;99.90;;;;;;6219214;23;20353;-77
2021/07/11 00:51:12;;;;;;;;;;;17.10;99.90;;;;;;6245587;23;19997;-77
2021/07/11 00:53:47;;;;;;;;;;;17.10;99.90;;;;;;6246271;23;19910;-77
2021/07/11 00:56:13;;;;;;;;;;;17.10;99.90;;;;;;6245736;23;19909;-77
2021/07/11 00:58:38;;;;;;;;;;;17.10;99.90;;;;;;6245356;23;20295;-77
2021/07/11 01:01:03;;;;;;;;;;;17.10;99.90;;;;;;6244104;23;19927;-76
2021/07/11 01:03:34;;;;;;;;;;;17.00;99.90;;;;;;6244493;23;19986;-76
2021/07/11 01:06:01;;;;;;;;;;;17.00;99.90;;;;;;6244060;23;19926;-77
2021/07/11 01:08:38;;;;;;;;;;;17.00;99.90;;;;;;6244487;23;19950;-76
2021/07/11 01:11:05;;;;;;;;;;;17.00;99.90;;;;;;6244935;23;19908;-77
2021/07/11 01:13:31;;;;;;;;;;;17.00;99.90;;;;;;6244887;23;19907;-77
2021/07/11 01:15:59;;;;;;;;;;;17.00;99.90;;;;;;6245105;23;19970;-77
2021/07/11 01:18:26;;;;;;;;;;;17.00;99.90;;;;;;6218418;23;19946;-77
2021/07/11 01:20:55;;;;;;;;;;;17.00;99.90;;;;;;6244803;23;19944;-77
2021/07/11 01:23:31;;;;;;;;;;;16.90;99.90;;;;;;6218004;23;19904;-77
2021/07/11 01:25:57;;;;;;;;;;;16.90;99.90;;;;;;6244512;23;19953;-77
2021/07/11 01:28:23;;;;;;;;;;;16.90;99.90;;;;;;6244851;23;19911;-76
2021/07/11 01:30:49;;;;;;;;;;;16.90;99.90;;;;;;6244537;23;19910;-78
2021/07/11 01:33:16;;;;;;;;;;;16.90;99.90;;;;;;6244448;23;19904;-76
2021/07/11 01:35:43;;;;;;;;;;;16.90;99.90;;;;;;6245118;23;19903;-77
2021/07/11 01:38:09;;;;;;;;;;;16.90;99.90;;;;;;6218242;23;20400;-76
2021/07/11 01:40:34;;;;;;;;;;;17.00;99.90;;;;;;6244510;23;19908;-77
2021/07/11 01:43:00;;;;;;;;;;;17.00;99.90;;;;;;6244333;23;19907;-77
2021/07/11 01:45:26;;;;;;;;;;;17.00;99.90;;;;;;6244802;23;19915;-77
2021/07/11 01:47:52;;;;;;;;;;;17.00;99.90;;;;;;6244978;23;19904;-76
2021/07/11 01:50:18;;;;;;;;;;;17.00;99.90;;;;;;6217618;23;19946;-76
2021/07/11 01:52:44;;;;;;;;;;;16.90;99.90;;;;;;6244629;23;19903;-77
2021/07/11 01:55:10;;;;;;;;;;;17.00;99.90;;;;;;6244604;23;19904;-77
2021/07/11 01:57:36;;;;;;;;;;;16.90;99.90;;;;;;6244982;23;19986;-77
2021/07/11 02:00:04;;;;;;;;;;;16.90;99.90;;;;;;6244399;23;19927;-77
2021/07/11 02:02:30;;;;;;;;;;;16.90;99.90;;;;;;6244751;23;19904;-77
2021/07/11 02:04:55;;;;;;;;;;;16.90;99.90;;;;;;6245455;23;19930;-77
2021/07/11 02:07:20;;;;;;;;;;;16.90;99.90;;;;;;6247658;23;19903;-77
2021/07/11 02:09:46;;;;;;;;;;;16.90;99.90;;;;;;6246250;23;19912;-77
2021/07/11 02:12:12;;;;;;;;;;;16.90;99.90;;;;;;6248220;23;19914;-77
2021/07/11 02:14:41;;;;;;;;;;;16.90;99.90;;;;;;6220731;23;19915;-77
2021/07/11 02:17:09;;;;;;;;;;;16.90;99.90;;;;;;6248794;23;19907;-77
2021/07/11 02:19:37;;;;;;;;;;;16.90;99.90;;;;;;6247988;23;19993;-77
2021/07/11 02:22:03;;;;;;;;;;;16.90;99.90;;;;;;6249952;23;19911;-77
2021/07/11 02:24:30;;;;;;;;;;;16.90;99.90;;;;;;6249919;23;19904;-77
2021/07/11 02:26:56;;;;;;;;;;;16.90;99.90;;;;;;6250576;23;19911;-77
2021/07/11 02:29:23;;;;;;;;;;;16.90;99.90;;;;;;6249616;23;19907;-77
2021/07/11 02:31:48;;;;;;;;;;;16.90;99.90;;;;;;6250921;23;19910;-77
2021/07/11 02:34:14;;;;;;;;;;;16.90;99.90;;;;;;6222876;23;19903;-77
2021/07/11 02:36:44;;;;;;;;;;;16.80;99.90;;;;;;6223941;23;19904;-77
2021/07/11 02:39:16;;;;;;;;;;;16.80;99.90;;;;;;6248863;23;19903;-77
2021/07/11 02:41:46;;;;;;;;;;;16.80;99.90;;;;;;6221723;23;20326;-77
2021/07/11 02:44:13;;;;;;;;;;;16.80;99.90;;;;;;6221551;23;19957;-77
2021/07/11 02:46:40;;;;;;;;;;;16.80;99.90;;;;;;6249735;23;19904;-77
2021/07/11 02:49:07;;;;;;;;;;;16.90;99.90;;;;;;6248760;23;19919;-77
2021/07/11 02:51:34;;;;;;;;;;;16.90;99.90;;;;;;6250416;23;19903;-77
2021/07/11 02:54:00;;;;;;;;;;;16.90;99.90;;;;;;6221377;23;20306;-77
2021/07/11 02:56:27;;;;;;;;;;;16.90;99.90;;;;;;6248976;23;19914;-77
2021/07/11 02:58:54;;;;;;;;;;;16.90;99.90;;;;;;6248390;23;19947;-77
2021/07/11 03:01:23;;;;;;;;;;;16.90;99.90;;;;;;6222926;23;19904;-77
2021/07/11 03:03:49;;;;;;;;;;;16.90;99.90;;;;;;6248495;23;20384;-77
2021/07/11 03:06:15;;;;;;;;;;;16.90;99.90;;;;;;6250569;23;19927;-77
2021/07/11 03:08:41;;;;;;;;;;;16.90;99.90;;;;;;6249398;23;19921;-77
2021/07/11 03:11:07;;;;;;;;;;;16.90;99.90;;;;;;6249062;23;19904;-77
2021/07/11 03:13:34;;;;;;;;;;;16.90;99.90;;;;;;6221619;23;19904;-77
2021/07/11 03:15:59;;;;;;;;;;;16.90;99.90;;;;;;6223170;23;19903;-77
2021/07/11 03:18:26;;;;;;;;;;;16.90;99.90;;;;;;6248807;23;19907;-76
2021/07/11 03:20:52;;;;;;;;;;;16.90;99.90;;;;;;6250221;23;19912;-77
2021/07/11 03:23:18;;;;;;;;;;;16.90;99.90;;;;;;6222694;23;19914;-77
2021/07/11 03:25:43;;;;;;;;;;;16.90;99.90;;;;;;6252352;23;19951;-77
2021/07/11 03:28:09;;;;;;;;;;;16.90;99.90;;;;;;6224571;23;19930;-77
2021/07/11 03:30:39;;;;;;;;;;;16.90;99.90;;;;;;6251437;23;19945;-77
2021/07/11 03:33:05;;;;;;;;;;;16.90;99.90;;;;;;6250774;23;19908;-77
2021/07/11 03:35:32;;;;;;;;;;;16.90;99.90;;;;;;6251663;23;19903;-77
2021/07/11 03:37:59;;;;;;;;;;;16.90;99.90;;;;;;6223831;23;19988;-77
2021/07/11 03:40:30;;;;;;;;;;;16.90;99.90;;;;;;6250567;23;19904;-77
2021/07/11 03:42:58;;;;;;;;;;;16.90;99.90;;;;;;6249087;23;19978;-77
2021/07/11 03:45:24;;;;;;;;;;;16.90;99.90;;;;;;6223795;23;19907;-78
2021/07/11 03:47:57;;;;;;;;;;;16.90;99.90;;;;;;6250710;23;20380;-77
2021/07/11 03:50:23;;;;;;;;;;;16.90;99.90;;;;;;6250157;23;20392;-77
2021/07/11 03:52:54;;;;;;;;;;;16.90;99.90;;;;;;6222839;23;19903;-77
2021/07/11 03:55:20;;;;;;;;;;;16.90;99.90;;;;;;6222365;23;19904;-77
2021/07/11 03:57:45;;;;;;;;;;;16.90;99.90;;;;;;6249897;23;19958;-77
2021/07/11 04:00:11;;;;;;;;;;;16.90;99.90;;;;;;6249284;23;19963;-77
2021/07/11 04:02:37;;;;;;;;;;;16.90;99.90;;;;;;6249467;23;19908;-77
2021/07/11 04:05:03;;;;;;;;;;;16.90;99.90;;;;;;6223029;23;19910;-77
2021/07/11 04:07:30;;;;;;;;;;;16.90;99.90;;;;;;6247868;23;19904;-77
2021/07/11 04:09:56;;;;;;;;;;;16.90;99.90;;;;;;6249038;23;19915;-77
2021/07/11 04:12:21;;;;;;;;;;;16.90;99.90;;;;;;6221312;23;19950;-77
2021/07/11 04:14:47;;;;;;;;;;;16.90;99.90;;;;;;6250137;23;19904;-77
2021/07/11 04:17:13;;;;;;;;;;;17.00;99.90;;;;;;6249374;23;19965;-77
2021/07/11 04:19:40;;;;;;;;;;;17.00;99.90;;;;;;6221943;23;20258;-77
2021/07/11 04:22:06;;;;;;;;;;;17.00;99.90;;;;;;6248215;23;19907;-77
2021/07/11 04:24:33;;;;;;;;;;;17.10;99.90;;;;;;6249093;23;19904;-77
2021/07/11 04:26:58;;;;;;;;;;;17.10;99.90;;;;;;6248070;23;19903;-77
2021/07/11 04:29:25;;;;;;;;;;;17.10;99.90;;;;;;6248297;23;19928;-77
2021/07/11 04:31:50;;;;;;;;;;;17.10;99.90;;;;;;6248126;23;19907;-77
2021/07/11 04:34:23;;;;;;;;;;;17.20;99.90;;;;;;6221636;23;20292;-77
2021/07/11 04:36:49;;;;;;;;;;;17.10;99.90;;;;;;6221196;23;19946;-77
2021/07/11 04:39:14;;;;;;;;;;;17.20;99.90;;;;;;6248181;23;19908;-77
2021/07/11 04:41:41;;;;;;;;;;;17.20;99.90;;;;;;6221109;23;19910;-77
2021/07/11 04:44:07;;;;;;;;;;;17.30;99.90;;;;;;6248109;23;20242;-77
2021/07/11 04:46:33;;;;;;;;;;;17.20;99.90;;;;;;6248807;23;19904;-77
2021/07/11 04:48:58;;;;;;;;;;;17.30;99.90;;;;;;6247930;23;19907;-78
2021/07/11 04:51:24;;;;;;;;;;;17.30;99.90;;;;;;6248475;23;20242;-77
2021/07/11 04:53:50;;;;;;;;;;;17.40;99.90;;;;;;6246865;23;19903;-78
2021/07/11 04:56:15;;;;;;;;;;;17.30;99.90;;;;;;6247421;23;20665;-77
2021/07/11 04:58:40;;;;;;;;;;;17.30;99.90;;;;;;6221517;23;19983;-77
2021/07/11 05:01:06;;;;;;;;;;;17.30;99.90;;;;;;6255572;23;20289;-77
2021/07/11 05:03:31;;;;;;;;;;;17.30;99.90;;;;;;6255731;23;19903;-77
2021/07/11 05:05:57;;;;;;;;;;;17.30;99.90;;;;;;6257348;23;19904;-78
2021/07/11 05:08:22;;;;;;;;;;;17.30;99.90;;;;;;6255269;23;19954;-77
2021/07/11 05:10:48;;;;;;;;;;;17.40;99.90;;;;;;6252716;23;19908;-78
2021/07/11 05:13:13;;;;;;;;;;;17.40;99.90;;;;;;6251616;23;19904;-77
2021/07/11 05:15:39;;;;;;;;;;;17.40;99.90;;;;;;6251970;23;19982;-77
2021/07/11 05:18:04;;;;;;;;;;;17.50;99.90;;;;;;6251812;23;19904;-77
2021/07/11 05:20:30;;;;;;;;;;;17.50;99.90;;;;;;6251270;23;19915;-77
2021/07/11 05:22:55;;;;;;;;;;;17.60;99.90;;;;;;6224470;23;19911;-77
2021/07/11 05:25:21;;;;;;;;;;;17.70;99.90;;;;;;6251557;23;19904;-78
2021/07/11 05:27:46;;;;;;;;;;;17.80;99.90;;;;;;6224715;23;19911;-77
2021/07/11 05:30:12;;;;;;;;;;;17.80;99.90;;;;;;6251697;23;19918;-78
2021/07/11 05:32:38;;;;;;;;;;;17.90;99.90;;;;;;6250066;23;20219;-77
2021/07/11 05:35:04;;;;;;;;;;;17.90;99.90;;;;;;6250231;23;19903;-76
2021/07/11 05:37:29;;;;;;;;;;;18.00;99.90;;;;;;6249503;23;19911;-77
2021/07/11 05:39:55;;;;;;;;;;;18.00;99.90;;;;;;6250388;23;19919;-77
2021/07/11 05:42:20;;;;;;;;;;;18.00;99.90;;;;;;6254442;23;19904;-77
2021/07/11 05:44:46;;;;;;;;;;;18.00;99.90;;;;;;6255586;23;19993;-77
2021/07/11 05:47:12;;;;;;;;;;;18.10;99.90;;;;;;6255781;23;19904;-78
2021/07/11 05:49:37;;;;;;;;;;;18.20;99.90;;;;;;6254666;23;19908;-77
2021/07/11 05:52:03;;;;;;;;;;;18.30;99.90;;;;;;6253754;23;19904;-77
2021/07/11 05:54:28;;;;;;;;;;;18.40;99.90;;;;;;6255653;23;19903;-78
2021/07/11 05:56:54;;;;;;;;;;;18.50;99.90;;;;;;6255601;23;19926;-78
2021/07/11 05:59:19;;;;;;;;;;;18.60;99.90;;;;;;6257867;23;19903;-78
2021/07/11 06:01:45;;;;;;;;;;;18.70;99.90;;;;;;6257714;23;19907;-78
2021/07/11 06:04:10;;;;;;;;;;;18.70;99.90;;;;;;6230382;23;19915;-77
2021/07/11 06:06:36;;;;;;;;;;;18.80;99.90;;;;;;6257952;23;19904;-78
2021/07/11 06:09:01;;;;;;;;;;;18.80;99.90;;;;;;6257152;23;19907;-78
2021/07/11 06:11:27;;;;;;;;;;;18.80;99.90;;;;;;6257799;23;19903;-77
2021/07/11 06:13:52;;;;;;;;;;;18.70;99.90;;;;;;6258280;23;19944;-78
2021/07/11 06:16:18;;;;;;;;;;;18.70;99.90;;;;;;6257304;23;19908;-77
2021/07/11 06:18:43;;;;;;;;;;;18.60;99.90;;;;;;6257043;23;19978;-78
2021/07/11 06:21:09;;;;;;;;;;;18.60;99.90;;;;;;6281547;22;19941;-81
2021/07/11 06:23:54;;;;;;;;;;;18.50;99.90;;;;;;6293102;22;19903;-83
2021/07/11 06:26:22;;;;;;;;;;;18.50;99.90;;;;;;6267242;22;20002;-83
2021/07/11 06:28:58;;;;;;;;;;;18.40;99.90;;;;;;6265244;22;19926;-83
2021/07/11 06:31:23;;;;;;;;;;;18.40;99.90;;;;;;6291543;22;19903;-83
2021/07/11 06:33:49;;;;;;;;;;;18.40;99.90;;;;;;6293332;22;19904;-83
2021/07/11 06:36:15;;;;;;;;;;;18.40;99.90;;;;;;6266058;22;19907;-84
2021/07/11 06:38:40;;;;;;;;;;;18.40;99.90;;;;;;6293244;22;19903;-84
2021/07/11 06:41:06;;;;;;;;;;;18.40;99.90;;;;;;6264434;22;19910;-83
2021/07/11 06:43:34;;;;;;;;;;;18.30;99.90;;;;;;6292624;22;19915;-84
2021/07/11 06:46:02;;;;;;;;;;;18.30;99.90;;;;;;6265156;22;19903;-82
2021/07/11 06:48:27;;;;;;;;;;;18.30;99.90;;;;;;6294650;22;19914;-81
2021/07/11 06:50:53;;;;;;;;;;;18.30;99.90;;;;;;6295557;22;19904;-82
2021/07/11 06:53:18;;;;;;;;;;;18.30;99.90;;;;;;6295275;22;19911;-81
2021/07/11 06:55:44;;;;;;;;;;;18.30;99.90;;;;;;6295352;22;19892;-81
2021/07/11 06:58:10;;;;;;;;;;;18.30;99.90;;;;;;6294072;22;19907;-81
2021/07/11 07:00:36;;;;;;;;;;;18.30;99.90;;;;;;6295094;22;19953;-81
2021/07/11 07:03:01;;;;;;;;;;;18.40;99.90;;;;;;6266667;22;19907;-81
2021/07/11 07:05:27;;;;;;;;;;;18.50;99.90;;;;;;6294552;22;19911;-81
2021/07/11 07:07:52;;;;;;;;;;;18.70;99.90;;;;;;6267843;22;19925;-81
2021/07/11 07:10:19;;;;;;;;;;;18.90;99.90;;;;;;6294864;22;19914;-81
2021/07/11 07:12:47;;;;;;;;;;;19.10;99.90;;;;;;6267123;22;19914;-81
2021/07/11 07:15:13;;;;;;;;;;;19.20;99.90;;;;;;6267355;22;19903;-81
2021/07/11 07:17:38;;;;;;;;;;;19.30;99.90;;;;;;6266584;22;19947;-81
2021/07/11 07:20:06;;;;;;;;;;;19.40;99.90;;;;;;6267138;22;19950;-81
2021/07/11 07:22:31;;;;;;;;;;;19.40;99.90;;;;;;6293492;22;19907;-81
2021/07/11 07:24:57;;;;;;;;;;;19.60;99.90;;;;;;6294470;22;19910;-82
2021/07/11 07:27:23;;;;;;;;;;;19.70;99.90;;;;;;6268106;22;19903;-82
2021/07/11 07:29:48;;;;;;;;;;;19.80;99.90;;;;;;6267219;22;19907;-82
2021/07/11 07:32:14;;;;;;;;;;;19.90;99.90;;;;;;6292980;22;19904;-82
2021/07/11 07:34:39;;;;;;;;;;;20.10;99.90;;;;;;6294247;22;19926;-82
2021/07/11 07:37:05;;;;;;;;;;;20.50;99.90;;;;;;6295056;22;19955;-83
2021/07/11 07:39:30;;;;;;;;;;;21.10;99.90;;;;;;6266980;22;19910;-82
2021/07/11 07:41:56;;;;;;;;;;;22.30;99.90;;;;;;6292802;22;19904;-83
2021/07/11 07:44:23;;;;;;;;;;;26.60;99.90;;;;;;6293809;22;19914;-84
2021/07/11 07:46:49;;;;;;;;;;;31.00;99.90;;;;;;6294053;22;19911;-83
2021/07/11 07:49:14;;;;;;;;;;;33.20;99.90;;;;;;6294528;22;19929;-83
2021/07/11 07:51:42;;;;;;;;;;;34.50;96.20;;;;;;6293179;22;19911;-83
2021/07/11 07:54:10;;;;;;;;;;;34.70;93.00;;;;;;6293724;22;19957;-83
2021/07/11 07:56:35;;;;;;;;;;;34.50;92.60;;;;;;6265237;22;19903;-84
2021/07/11 07:59:04;;;;;;;;;;;36.90;89.90;;;;;;6291957;22;19914;-84
2021/07/11 08:01:41;;;;;;;;;;;;;;;;;;;;;
2021/07/11 08:04:20;;;;;;;;;;;;;;;;;;;;;
2021/07/11 08:06:56;;;;;;;;;;;45.70;58.50;;;;;;6294247;22;19918;-84
2021/07/11 08:09:21;;;;;;;;;;;47.60;53.70;;;;;;6289690;22;19927;-82
2021/07/11 08:12:04;;;;;;;;;;;49.10;50.50;;;;;;6263726;22;19903;-81
2021/07/11 08:14:30;;;;;;;;;;;48.80;48.50;;;;;;6264274;22;19903;-83
2021/07/11 08:16:56;;;;;;;;;;;49.00;47.90;;;;;;6292071;22;20348;-82
2021/07/11 08:19:22;;;;;;;;;;;49.70;46.20;;;;;;6290782;22;19907;-82
2021/07/11 08:21:48;;;;;;;;;;;50.40;44.80;;;;;;6295387;22;19917;-83
2021/07/11 08:24:21;;;;;;;;;;;51.00;44.00;;;;;;6264506;22;19911;-82
2021/07/11 08:27:07;;;;;;;;;;;51.30;42.40;;;;;;6263473;22;19903;-82
2021/07/11 08:29:35;;;;;;;;;;;51.40;41.20;;;;;;6262412;22;20356;-82
2021/07/11 08:32:00;;;;;;;;;;;50.70;40.80;;;;;;6289330;22;19910;-82
2021/07/11 08:34:26;;;;;;;;;;;50.20;40.40;;;;;;6291396;22;19904;-82
2021/07/11 08:36:59;;;;;;;;;;;49.90;39.30;;;;;;6262687;22;20322;-82
2021/07/11 08:39:24;;;;;;;;;;;50.30;38.70;;;;;;6289143;22;19904;-82
2021/07/11 08:41:50;;;;;;;;;;;50.90;38.10;;;;;;6261761;22;19929;-82
2021/07/11 08:44:15;;;;;;;;;;;49.30;37.30;;;;;;6265616;22;19914;-81
2021/07/11 08:46:41;;;;;;;;;;;47.20;38.10;;;;;;6292359;22;19938;-83
2021/07/11 08:49:07;;;;;;;;;;;45.70;39.00;;;;;;6265438;22;19911;-82
2021/07/11 08:51:32;;;;;;;;;;;46.90;39.40;;;;;;6291749;22;19926;-83
2021/07/11 08:53:59;;;;;;;;;;;48.00;37.40;;;;;;6292720;22;19903;-82
2021/07/11 08:56:25;;;;;;;;;;;47.60;36.50;;;;;;6291888;22;19926;-82
2021/07/11 08:58:53;;;;;;;;;;;48.20;36.80;;;;;;6264066;22;19903;-82
2021/07/11 09:01:19;;;;;;;;;;;49.50;36.10;;;;;;6263575;22;19926;-83
2021/07/11 09:03:44;;;;;;;;;;;50.50;35.30;;;;;;6287848;22;19903;-84
2021/07/11 09:06:10;;;;;;;;;;;49.70;34.90;;;;;;6289934;22;19911;-83
2021/07/11 09:08:40;;;;;;;;;;;47.00;36.40;;;;;;6265596;22;19908;-82
2021/07/11 09:11:07;;;;;;;;;;;45.00;37.40;;;;;;6293134;22;19903;-83
2021/07/11 09:13:32;;;;;;;;;;;45.50;37.90;;;;;;6291574;22;19951;-84
2021/07/11 09:15:58;;;;;;;;;;;46.50;36.30;;;;;;6265461;22;19903;-82
2021/07/11 09:18:28;;;;;;;;;;;43.90;37.80;;;;;;6267123;22;19904;-82
2021/07/11 09:20:56;;;;;;;;;;;41.10;40.00;;;;;;6288998;22;19912;-83
2021/07/11 09:23:22;;;;;;;;;;;38.50;40.80;;;;;;6284515;22;20257;-81
2021/07/11 09:25:58;;;;;;;;;;;37.80;41.80;;;;;;6258079;22;19910;-83
2021/07/11 09:28:23;;;;;;;;;;;39.90;39.80;;;;;;6258476;22;19908;-82
2021/07/11 09:31:14;;;;;;;;;;;42.20;37.80;;;;;;6285646;22;19904;-82
2021/07/11 09:33:42;;;;;;;;;;;40.90;38.70;;;;;;6239513;22;19909;-82
2021/07/11 09:36:17;;;;;;;;;;;39.90;38.50;;;;;;6285184;22;20455;-83
2021/07/11 09:38:52;;;;;;;;;;;40.40;39.00;;;;;;6258479;22;19904;-82
2021/07/11 09:41:22;;;;;;;;;;;42.40;37.60;;;;;;6285641;22;19903;-83
2021/07/11 09:43:48;;;;;;;;;;;42.30;37.50;;;;;;6258394;22;19910;-83
2021/07/11 09:46:14;;;;;;;;;;;41.20;38.10;;;;;;6286187;22;19934;-81
2021/07/11 09:48:40;;;;;;;;;;;39.70;39.10;;;;;;6258239;22;20257;-82
2021/07/11 09:51:16;;;;;;;;;;;38.20;40.10;;;;;;6285245;22;19907;-82
2021/07/11 09:53:41;;;;;;;;;;;39.70;39.70;;;;;;6285573;22;19907;-82
2021/07/11 09:56:07;;;;;;;;;;;41.70;38.00;;;;;;6286257;22;19903;-82
2021/07/11 09:58:33;;;;;;;;;;;43.00;36.60;;;;;;6287196;22;19910;-83
2021/07/11 10:01:12;;;;;;;;;;;42.50;36.60;;;;;;6286071;22;20276;-83
2021/07/11 10:03:37;;;;;;;;;;;42.70;37.00;;;;;;6285529;22;20065;-82
2021/07/11 10:06:10;;;;;;;;;;;42.20;36.50;;;;;;6285348;22;19910;-83
2021/07/11 10:08:36;;;;;;;;;;;41.70;37.60;;;;;;6258718;22;19951;-83
2021/07/11 10:11:02;;;;;;;;;;;42.30;36.50;;;;;;6285511;22;19904;-82
2021/07/11 10:13:27;;;;;;;;;;;42.80;36.50;;;;;;6286707;22;19904;-83
2021/07/11 10:15:55;;;;;;;;;;;44.00;35.70;;;;;;6286092;22;19926;-83
2021/07/11 10:18:21;;;;;;;;;;;43.60;35.40;;;;;;6285632;22;19904;-83
2021/07/11 10:20:56;;;;;;;;;;;42.00;36.10;;;;;;6285904;22;19911;-84
2021/07/11 10:23:37;;;;;;;;;;;41.20;36.20;;;;;;6278561;22;19913;-83
2021/07/11 10:26:04;;;;;;;;;;;41.50;36.10;;;;;;6276541;22;19903;-83
2021/07/11 10:28:31;;;;;;;;;;;42.30;35.00;;;;;;6276137;22;20291;-83
2021/07/11 10:30:59;;;;;;;;;;;43.00;34.60;;;;;;6276157;22;19942;-83
2021/07/11 10:33:25;;;;;;;;;;;43.30;34.30;;;;;;6249045;22;19950;-83
2021/07/11 10:36:00;;;;;;;;;;;42.10;34.60;;;;;;6249761;22;19913;-83
2021/07/11 10:38:41;;;;;;;;;;;41.20;34.70;;;;;;6280454;22;20181;-82
2021/07/11 10:41:08;;;;;;;;;;;41.70;35.10;;;;;;6281914;22;19982;-81
2021/07/11 10:43:33;;;;;;;;;;;43.20;35.00;;;;;;6255138;22;19904;-80
2021/07/11 10:45:59;;;;;;;;;;;44.00;34.60;;;;;;6258818;22;19903;-82
2021/07/11 10:48:28;;;;;;;;;;;44.30;34.00;;;;;;6284938;22;19907;-81
2021/07/11 10:50:54;;;;;;;;;;;44.70;33.60;;;;;;6283807;22;19927;-83
2021/07/11 10:53:19;;;;;;;;;;;44.90;33.30;;;;;;6255446;22;19911;-81
2021/07/11 10:55:46;;;;;;;;;;;42.80;34.00;;;;;;6254625;22;19903;-82
2021/07/11 10:58:11;;;;;;;;;;;40.90;35.20;;;;;;6280550;22;19951;-81
2021/07/11 11:00:37;;;;;;;;;;;39.50;36.20;;;;;;6280758;22;19930;-81
2021/07/11 11:03:13;;;;;;;;;;;38.30;37.00;;;;;;6252302;22;19914;-81
2021/07/11 11:05:42;;;;;;;;;;;37.40;37.70;;;;;;6279939;22;19991;-80
2021/07/11 11:08:12;;;;;;;;;;;36.30;38.10;;;;;;6279972;22;19907;-80
2021/07/11 11:10:38;;;;;;;;;;;35.50;38.50;;;;;;6252348;22;19904;-81
2021/07/11 11:13:11;;;;;;;;;;;34.60;39.10;;;;;;6251961;22;19994;-82
2021/07/11 11:15:39;;;;;;;;;;;33.90;39.60;;;;;;6252306;22;20325;-81
2021/07/11 11:18:16;;;;;;;;;;;33.20;39.90;;;;;;6255088;22;19904;-80
2021/07/11 11:20:42;;;;;;;;;;;33.10;40.20;;;;;;6282152;22;19955;-81
2021/07/11 11:23:09;;;;;;;;;;;32.70;40.30;;;;;;6251427;22;19903;-81
2021/07/11 11:25:35;;;;;;;;;;;32.50;40.40;;;;;;6278747;22;20314;-80
2021/07/11 11:28:00;;;;;;;;;;;32.20;40.60;;;;;;6278395;22;20034;-79
2021/07/11 11:30:26;;;;;;;;;;;32.10;40.80;;;;;;6250875;22;19904;-81
2021/07/11 11:32:54;;;;;;;;;;;31.90;40.70;;;;;;6278509;22;19907;-80
2021/07/11 11:35:22;;;;;;;;;;;31.60;40.70;;;;;;6279119;22;20316;-81
2021/07/11 11:37:49;;;;;;;;;;;31.40;41.00;;;;;;6251436;22;19903;-81
2021/07/11 11:40:15;;;;;;;;;;;31.20;41.20;;;;;;6251700;22;20344;-81
2021/07/11 11:42:58;;;;;;;;;;;31.00;41.40;;;;;;6251312;22;19903;-81
2021/07/11 11:45:24;;;;;;;;;;;30.80;41.60;;;;;;6253791;22;20280;-81
2021/07/11 11:48:01;;;;;;;;;;;30.70;41.70;;;;;;6280929;22;19903;-81
2021/07/11 11:50:27;;;;;;;;;;;30.80;41.80;;;;;;6254110;22;19907;-81
2021/07/11 11:53:02;;;;;;;;;;;31.10;41.80;;;;;;6280869;22;19910;-81
2021/07/11 11:55:28;;;;;;;;;;;31.40;42.20;;;;;;6253667;22;19903;-81
2021/07/11 11:57:59;;;;;;;;;;;31.90;41.20;;;;;;6253071;22;19904;-82
2021/07/11 12:00:25;;;;;;;;;;;33.80;40.40;;;;;;6254757;22;20218;-82
2021/07/11 12:02:57;;;;;;;;;;;35.60;39.20;;;;;;6282395;22;19974;-82
2021/07/11 12:05:23;;;;;;;;;;;36.90;37.60;;;;;;6283343;22;19903;-82
2021/07/11 12:07:48;;;;;;;;;;;37.80;37.20;;;;;;6255358;22;19903;-81
2021/07/11 12:10:14;;;;;;;;;;;38.50;36.60;;;;;;6281469;22;19907;-82
2021/07/11 12:12:52;;;;;;;;;;;37.90;36.00;;;;;;6253517;22;20341;-81
2021/07/11 12:15:26;;;;;;;;;;;36.80;36.70;;;;;;6254464;22;19910;-81
2021/07/11 12:17:58;;;;;;;;;;;35.90;38.00;;;;;;6281185;22;19946;-81
2021/07/11 12:20:23;;;;;;;;;;;35.00;37.70;;;;;;6277682;22;19923;-81
2021/07/11 12:22:49;;;;;;;;;;;34.10;38.00;;;;;;6279273;22;20326;-80
2021/07/11 12:25:17;;;;;;;;;;;33.40;38.60;;;;;;6279791;22;19907;-81
2021/07/11 12:27:44;;;;;;;;;;;33.00;39.10;;;;;;6279887;22;19903;-80
2021/07/11 12:30:12;;;;;;;;;;;32.70;39.40;;;;;;6279755;22;19922;-80
2021/07/11 12:32:39;;;;;;;;;;;32.50;39.60;;;;;;6279393;22;20269;-81
2021/07/11 12:35:05;;;;;;;;;;;32.30;39.70;;;;;;6252951;22;19926;-82
2021/07/11 12:37:30;;;;;;;;;;;32.20;39.90;;;;;;6280014;22;19907;-81
2021/07/11 12:39:56;;;;;;;;;;;32.10;40.00;;;;;;6279754;22;19969;-80
2021/07/11 12:42:21;;;;;;;;;;;32.00;40.00;;;;;;6279208;22;19903;-80
2021/07/11 12:44:47;;;;;;;;;;;32.00;40.20;;;;;;6279746;22;19954;-81
2021/07/11 12:47:17;;;;;;;;;;;32.10;40.10;;;;;;6279836;22;19911;-80
2021/07/11 12:49:56;;;;;;;;;;;32.30;40.00;;;;;;6279683;22;20333;-80
2021/07/11 12:52:22;;;;;;;;;;;32.50;39.90;;;;;;6279476;22;20349;-81
2021/07/11 12:54:48;;;;;;;;;;;33.40;39.60;;;;;;6279589;22;19962;-81
2021/07/11 12:57:14;;;;;;;;;;;33.90;38.80;;;;;;6280019;22;19903;-82
2021/07/11 12:59:40;;;;;;;;;;;33.80;39.00;;;;;;6280448;22;19968;-81
2021/07/11 13:02:06;;;;;;;;;;;34.00;39.20;;;;;;6279394;22;19903;-81
2021/07/11 13:04:32;;;;;;;;;;;33.90;38.70;;;;;;6280185;22;19903;-80
2021/07/11 13:07:20;;;;;;;;;;;33.60;38.80;;;;;;6280138;22;19969;-80
2021/07/11 13:09:45;;;;;;;;;;;33.60;39.10;;;;;;6279798;22;19907;-81
2021/07/11 13:12:10;;;;;;;;;;;33.60;39.10;;;;;;6279405;22;19974;-81
2021/07/11 13:14:49;;;;;;;;;;;33.60;39.40;;;;;;6280360;22;20237;-81
2021/07/11 13:17:15;;;;;;;;;;;33.60;39.40;;;;;;6280099;22;19903;-81
2021/07/11 13:19:40;;;;;;;;;;;34.00;39.20;;;;;;6280444;22;19913;-81
2021/07/11 13:22:05;;;;;;;;;;;34.30;38.80;;;;;;6279115;22;20249;-81
2021/07/11 13:24:31;;;;;;;;;;;34.70;38.80;;;;;;6279997;22;19910;-81
2021/07/11 13:26:57;;;;;;;;;;;35.00;38.80;;;;;;6252423;22;19903;-80
2021/07/11 13:29:22;;;;;;;;;;;35.30;38.80;;;;;;6252879;22;19914;-81
2021/07/11 13:31:48;;;;;;;;;;;35.10;38.70;;;;;;6279817;22;19904;-81
2021/07/11 13:34:13;;;;;;;;;;;34.40;39.10;;;;;;6279883;22;19903;-81
2021/07/11 13:36:39;;;;;;;;;;;33.70;39.70;;;;;;6279924;22;20083;-81
2021/07/11 13:39:05;;;;;;;;;;;33.50;40.10;;;;;;6252452;22;20321;-81
2021/07/11 13:41:30;;;;;;;;;;;33.60;40.00;;;;;;6280042;22;19996;-81
2021/07/11 13:43:56;;;;;;;;;;;33.60;39.90;;;;;;6278466;22;19903;-81
2021/07/11 13:46:21;;;;;;;;;;;33.70;40.00;;;;;;6279200;22;19904;-81
2021/07/11 13:48:47;;;;;;;;;;;33.70;40.00;;;;;;6279380;22;19907;-80
2021/07/11 13:51:12;;;;;;;;;;;33.80;40.00;;;;;;6279157;22;19970;-80
2021/07/11 13:53:38;;;;;;;;;;;33.60;39.70;;;;;;6250868;22;20318;-80
2021/07/11 13:56:04;;;;;;;;;;;33.40;39.90;;;;;;6278729;22;20408;-80
2021/07/11 13:58:29;;;;;;;;;;;33.30;40.00;;;;;;6278600;22;19903;-80
2021/07/11 14:00:55;;;;;;;;;;;33.20;40.20;;;;;;6278438;22;19911;-80
2021/07/11 14:03:20;;;;;;;;;;;32.90;40.40;;;;;;6278528;22;19990;-80
2021/07/11 14:05:46;;;;;;;;;;;32.60;40.60;;;;;;6251391;22;19926;-80
2021/07/11 14:08:11;;;;;;;;;;;32.20;40.70;;;;;;6278273;22;19918;-80
2021/07/11 14:10:36;;;;;;;;;;;31.90;41.10;;;;;;6278509;22;19903;-80
2021/07/11 14:13:02;;;;;;;;;;;31.50;41.30;;;;;;6278810;22;20325;-80
2021/07/11 14:15:28;;;;;;;;;;;31.20;41.50;;;;;;6251535;22;19903;-80
2021/07/11 14:17:54;;;;;;;;;;;30.90;41.60;;;;;;6251789;22;19911;-80